sensor_id;sensor_type;location;lat;lon;timestamp;pressure;altitude;pressure_sealevel;temperature;humidity
21359;BME280;13506;50.852;20.632;2022-09-20T00:01:07;97919.97;;;13.56;98.54
21359;BME280;13506;50.852;20.632;2022-09-20T00:03:36;97915.47;;;13.58;98.56
21359;BME280;13506;50.852;20.632;2022-09-20T00:06:07;97912.28;;;13.55;98.21
21359;BME280;13506;50.852;20.632;2022-09-20T00:08:35;97909.41;;;13.58;97.77
21359;BME280;13506;50.852;20.632;2022-09-20T00:11:06;97905.16;;;13.57;97.36
21359;BME280;13506;50.852;20.632;2022-09-20T00:13:36;97919.25;;;13.54;98.52
21359;BME280;13506;50.852;20.632;2022-09-20T00:16:07;97910.84;;;13.51;98.19
21359;BME280;13506;50.852;20.632;2022-09-20T00:18:35;97909.78;;;13.53;97.72
21359;BME280;13506;50.852;20.632;2022-09-20T00:21:04;97910.13;;;13.49;98.98
21359;BME280;13506;50.852;20.632;2022-09-20T00:23:32;97919.03;;;13.46;98.96
21359;BME280;13506;50.852;20.632;2022-09-20T00:26:03;97923.06;;;13.50;98.25
21359;BME280;13506;50.852;20.632;2022-09-20T00:28:31;97919.63;;;13.50;98.37
21359;BME280;13506;50.852;20.632;2022-09-20T00:31:00;97917.13;;;13.48;99.16
21359;BME280;13506;50.852;20.632;2022-09-20T00:33:29;97917.97;;;13.49;99.13
21359;BME280;13506;50.852;20.632;2022-09-20T00:36:11;97918.69;;;13.51;99.64
21359;BME280;13506;50.852;20.632;2022-09-20T00:38:38;97911.56;;;13.53;99.21
21359;BME280;13506;50.852;20.632;2022-09-20T00:41:06;97916.66;;;13.54;98.86
21359;BME280;13506;50.852;20.632;2022-09-20T00:43:37;97919.41;;;13.53;99.03
21359;BME280;13506;50.852;20.632;2022-09-20T00:46:08;97920.22;;;13.53;99.03
21359;BME280;13506;50.852;20.632;2022-09-20T00:48:41;97921.78;;;13.56;98.57
21359;BME280;13506;50.852;20.632;2022-09-20T00:51:12;97918.34;;;13.55;99.24
21359;BME280;13506;50.852;20.632;2022-09-20T00:53:46;97926.28;;;13.54;99.45
21359;BME280;13506;50.852;20.632;2022-09-20T00:56:18;97929.00;;;13.52;98.87
21359;BME280;13506;50.852;20.632;2022-09-20T00:58:53;97922.13;;;13.51;98.63
21359;BME280;13506;50.852;20.632;2022-09-20T01:01:25;97922.34;;;13.48;99.36
21359;BME280;13506;50.852;20.632;2022-09-20T01:03:54;97917.97;;;13.49;99.78
21359;BME280;13506;50.852;20.632;2022-09-20T01:06:23;97922.13;;;13.51;99.92
21359;BME280;13506;50.852;20.632;2022-09-20T01:08:51;97919.63;;;13.50;99.76
21359;BME280;13506;50.852;20.632;2022-09-20T01:11:20;97923.31;;;13.47;99.23
21359;BME280;13506;50.852;20.632;2022-09-20T01:13:49;97914.75;;;13.45;100.00
21359;BME280;13506;50.852;20.632;2022-09-20T01:16:17;97919.16;;;13.44;99.22
21359;BME280;13506;50.852;20.632;2022-09-20T01:18:47;97922.69;;;13.43;99.14
21359;BME280;13506;50.852;20.632;2022-09-20T01:21:18;97925.09;;;13.47;99.22
21359;BME280;13506;50.852;20.632;2022-09-20T01:23:53;97921.78;;;13.44;99.67
21359;BME280;13506;50.852;20.632;2022-09-20T01:26:52;97923.19;;;13.49;99.24
21359;BME280;13506;50.852;20.632;2022-09-20T01:29:45;97921.53;;;13.48;100.00
21359;BME280;13506;50.852;20.632;2022-09-20T01:32:21;97919.88;;;13.47;98.90
21359;BME280;13506;50.852;20.632;2022-09-20T01:34:54;97927.72;;;13.47;99.78
21359;BME280;13506;50.852;20.632;2022-09-20T01:37:26;97926.75;;;13.48;99.52
21359;BME280;13506;50.852;20.632;2022-09-20T01:40:02;97926.03;;;13.46;99.98
21359;BME280;13506;50.852;20.632;2022-09-20T01:42:41;97919.88;;;13.47;99.50
21359;BME280;13506;50.852;20.632;2022-09-20T01:45:20;97923.19;;;13.49;98.84
21359;BME280;13506;50.852;20.632;2022-09-20T01:48:02;97917.84;;;13.50;99.00
21359;BME280;13506;50.852;20.632;2022-09-20T01:50:41;97916.06;;;13.51;99.38
21359;BME280;13506;50.852;20.632;2022-09-20T01:57:41;97922.59;;;13.45;98.23
21359;BME280;13506;50.852;20.632;2022-09-20T02:00:16;97930.06;;;13.38;99.32
21359;BME280;13506;50.852;20.632;2022-09-20T02:03:33;97929.09;;;13.39;98.65
21359;BME280;13506;50.852;20.632;2022-09-20T02:09:47;97927.09;;;13.32;99.19
21359;BME280;13506;50.852;20.632;2022-09-20T02:12:39;97925.53;;;13.29;99.48
21359;BME280;13506;50.852;20.632;2022-09-20T02:15:22;97931.69;;;13.28;99.93
21359;BME280;13506;50.852;20.632;2022-09-20T02:18:06;97923.97;;;13.27;99.34
21359;BME280;13506;50.852;20.632;2022-09-20T02:20:47;97931.94;;;13.25;99.62
21359;BME280;13506;50.852;20.632;2022-09-20T02:23:39;97933.06;;;13.10;100.00
21359;BME280;13506;50.852;20.632;2022-09-20T02:26:35;97933.56;;;13.15;99.70
21359;BME280;13506;50.852;20.632;2022-09-20T02:29:17;97939.63;;;13.15;99.44
21359;BME280;13506;50.852;20.632;2022-09-20T02:35:02;97943.16;;;13.14;100.00
21359;BME280;13506;50.852;20.632;2022-09-20T02:37:51;97941.41;;;13.15;99.90
21359;BME280;13506;50.852;20.632;2022-09-20T02:43:15;97949.00;;;13.18;98.53
21359;BME280;13506;50.852;20.632;2022-09-20T02:45:55;97948.53;;;13.13;98.94
21359;BME280;13506;50.852;20.632;2022-09-20T02:48:36;97951.25;;;13.11;99.45
21359;BME280;13506;50.852;20.632;2022-09-20T02:51:13;97956.56;;;13.10;98.92
21359;BME280;13506;50.852;20.632;2022-09-20T02:53:53;97949.44;;;13.12;98.63
21359;BME280;13506;50.852;20.632;2022-09-20T02:56:28;97955.53;;;13.12;99.17
21359;BME280;13506;50.852;20.632;2022-09-20T02:59:05;97957.28;;;13.12;99.08
21359;BME280;13506;50.852;20.632;2022-09-20T03:01:43;97957.28;;;13.12;98.62
21359;BME280;13506;50.852;20.632;2022-09-20T03:04:25;97949.97;;;13.17;98.87
21359;BME280;13506;50.852;20.632;2022-09-20T03:07:02;97959.69;;;13.15;98.53
21359;BME280;13506;50.852;20.632;2022-09-20T03:09:39;97954.47;;;13.15;98.36
21359;BME280;13506;50.852;20.632;2022-09-20T03:12:17;97962.31;;;13.15;98.63
21359;BME280;13506;50.852;20.632;2022-09-20T03:14:54;97966.66;;;13.14;99.12
21359;BME280;13506;50.852;20.632;2022-09-20T03:17:32;97962.31;;;13.15;98.58
21359;BME280;13506;50.852;20.632;2022-09-20T03:20:19;97960.75;;;13.12;98.24
21359;BME280;13506;50.852;20.632;2022-09-20T03:23:00;97958.25;;;13.11;98.09
21359;BME280;13506;50.852;20.632;2022-09-20T03:25:45;97966.91;;;13.11;98.45
21359;BME280;13506;50.852;20.632;2022-09-20T03:28:32;97962.75;;;13.09;98.69
21359;BME280;13506;50.852;20.632;2022-09-20T03:31:14;97967.00;;;13.10;98.31
21359;BME280;13506;50.852;20.632;2022-09-20T03:33:52;97969.41;;;13.13;98.93
21359;BME280;13506;50.852;20.632;2022-09-20T03:36:39;97958.97;;;13.13;97.64
21359;BME280;13506;50.852;20.632;2022-09-20T03:39:36;97975.81;;;13.09;98.49
21359;BME280;13506;50.852;20.632;2022-09-20T03:42:14;97960.88;;;13.11;97.93
21359;BME280;13506;50.852;20.632;2022-09-20T03:45:11;97974.63;;;13.13;98.25
21359;BME280;13506;50.852;20.632;2022-09-20T03:48:12;97967.88;;;13.10;98.68
21359;BME280;13506;50.852;20.632;2022-09-20T03:50:53;97971.53;;;13.08;98.79
21359;BME280;13506;50.852;20.632;2022-09-20T03:56:49;97972.38;;;13.08;98.67
21359;BME280;13506;50.852;20.632;2022-09-20T03:59:47;97978.88;;;13.02;99.14
21359;BME280;13506;50.852;20.632;2022-09-20T04:02:36;97978.63;;;13.06;98.64
21359;BME280;13506;50.852;20.632;2022-09-20T04:05:14;97994.44;;;13.04;98.47
21359;BME280;13506;50.852;20.632;2022-09-20T04:07:54;97992.88;;;13.01;98.71
21359;BME280;13506;50.852;20.632;2022-09-20T04:10:44;97999.03;;;13.00;99.28
21359;BME280;13506;50.852;20.632;2022-09-20T04:13:30;97997.25;;;13.01;99.00
21359;BME280;13506;50.852;20.632;2022-09-20T04:16:17;98004.16;;;13.02;99.01
21359;BME280;13506;50.852;20.632;2022-09-20T04:18:52;98006.97;;;12.99;99.16
21359;BME280;13506;50.852;20.632;2022-09-20T04:21:30;98002.72;;;12.98;99.15
21359;BME280;13506;50.852;20.632;2022-09-20T04:24:03;98011.38;;;12.98;99.59
21359;BME280;13506;50.852;20.632;2022-09-20T04:26:37;98006.41;;;12.95;99.77
21359;BME280;13506;50.852;20.632;2022-09-20T04:29:27;98006.16;;;12.98;99.83
21359;BME280;13506;50.852;20.632;2022-09-20T04:32:06;98019.66;;;12.92;99.11
21359;BME280;13506;50.852;20.632;2022-09-20T04:34:42;98024.88;;;12.92;99.66
21359;BME280;13506;50.852;20.632;2022-09-20T04:37:32;98025.13;;;12.89;100.00
21359;BME280;13506;50.852;20.632;2022-09-20T04:40:12;98031.28;;;12.88;99.82
21359;BME280;13506;50.852;20.632;2022-09-20T04:43:15;98026.78;;;12.90;99.77
21359;BME280;13506;50.852;20.632;2022-09-20T04:46:08;98030.19;;;12.91;99.76
21359;BME280;13506;50.852;20.632;2022-09-20T04:52:30;98013.28;;;12.96;99.58
21359;BME280;13506;50.852;20.632;2022-09-20T05:01:36;98035.50;;;13.02;98.86
21359;BME280;13506;50.852;20.632;2022-09-20T05:11:06;98034.34;;;13.06;98.80
21359;BME280;13506;50.852;20.632;2022-09-20T05:14:00;98039.41;;;13.08;99.04
21359;BME280;13506;50.852;20.632;2022-09-20T05:16:50;98047.50;;;13.04;99.12
21359;BME280;13506;50.852;20.632;2022-09-20T05:19:30;98044.97;;;13.03;98.93
21359;BME280;13506;50.852;20.632;2022-09-20T05:22:23;98049.16;;;13.06;98.50
21359;BME280;13506;50.852;20.632;2022-09-20T05:25:35;98037.97;;;13.03;98.41
21359;BME280;13506;50.852;20.632;2022-09-20T05:28:09;98044.97;;;13.03;97.65
21359;BME280;13506;50.852;20.632;2022-09-20T05:30:44;98050.09;;;13.04;98.59
21359;BME280;13506;50.852;20.632;2022-09-20T05:33:21;98046.53;;;13.06;98.62
21359;BME280;13506;50.852;20.632;2022-09-20T05:36:03;98048.41;;;13.03;98.42
21359;BME280;13506;50.852;20.632;2022-09-20T05:38:44;98052.19;;;12.99;98.76
21359;BME280;13506;50.852;20.632;2022-09-20T05:41:21;98054.44;;;12.93;98.74
21359;BME280;13506;50.852;20.632;2022-09-20T05:44:04;98060.72;;;12.90;98.61
21359;BME280;13506;50.852;20.632;2022-09-20T05:46:44;98056.75;;;12.84;99.08
21359;BME280;13506;50.852;20.632;2022-09-20T05:49:35;98058.03;;;12.79;99.81
21359;BME280;13506;50.852;20.632;2022-09-20T05:52:28;98067.75;;;12.77;100.00
21359;BME280;13506;50.852;20.632;2022-09-20T05:55:36;98059.94;;;12.77;99.21
21359;BME280;13506;50.852;20.632;2022-09-20T05:58:29;98062.09;;;12.83;99.26
21359;BME280;13506;50.852;20.632;2022-09-20T06:01:06;98056.38;;;12.78;98.78
21359;BME280;13506;50.852;20.632;2022-09-20T06:03:40;98071.69;;;12.82;98.96
21359;BME280;13506;50.852;20.632;2022-09-20T06:06:21;98079.09;;;12.89;98.68
21359;BME280;13506;50.852;20.632;2022-09-20T06:09:02;98075.22;;;12.94;98.95
21359;BME280;13506;50.852;20.632;2022-09-20T06:11:50;98087.94;;;12.99;98.60
21359;BME280;13506;50.852;20.632;2022-09-20T06:14:35;98085.41;;;12.97;97.97
21359;BME280;13506;50.852;20.632;2022-09-20T06:17:16;98081.97;;;12.97;99.01
21359;BME280;13506;50.852;20.632;2022-09-20T06:19:59;98085.41;;;12.97;98.48
21359;BME280;13506;50.852;20.632;2022-09-20T06:22:36;98084.06;;;13.04;98.06
21359;BME280;13506;50.852;20.632;2022-09-20T06:25:15;98080.81;;;13.01;97.77
21359;BME280;13506;50.852;20.632;2022-09-20T06:27:50;98089.81;;;12.97;97.91
21359;BME280;13506;50.852;20.632;2022-09-20T06:30:21;98092.75;;;12.92;97.97
21359;BME280;13506;50.852;20.632;2022-09-20T06:32:55;98090.91;;;12.81;98.27
21359;BME280;13506;50.852;20.632;2022-09-20T06:35:29;98101.00;;;12.62;99.17
21359;BME280;13506;50.852;20.632;2022-09-20T06:38:10;98093.03;;;12.63;99.18
21359;BME280;13506;50.852;20.632;2022-09-20T06:41:03;98095.56;;;12.65;100.00
21359;BME280;13506;50.852;20.632;2022-09-20T06:43:48;98097.44;;;12.63;99.99
21359;BME280;13506;50.852;20.632;2022-09-20T06:46:16;98102.03;;;12.72;100.00
21359;BME280;13506;50.852;20.632;2022-09-20T06:48:44;98105.91;;;12.67;100.00
21359;BME280;13506;50.852;20.632;2022-09-20T06:51:12;98109.22;;;12.69;100.00
21359;BME280;13506;50.852;20.632;2022-09-20T06:53:42;98113.50;;;12.70;100.00
21359;BME280;13506;50.852;20.632;2022-09-20T06:56:14;98113.72;;;12.67;100.00
21359;BME280;13506;50.852;20.632;2022-09-20T06:58:43;98115.84;;;12.61;100.00
21359;BME280;13506;50.852;20.632;2022-09-20T07:01:11;98115.84;;;12.61;100.00
21359;BME280;13506;50.852;20.632;2022-09-20T07:03:39;98121.66;;;12.65;100.00
21359;BME280;13506;50.852;20.632;2022-09-20T07:06:07;98116.44;;;12.65;100.00
21359;BME280;13506;50.852;20.632;2022-09-20T07:08:35;98123.75;;;12.73;100.00
21359;BME280;13506;50.852;20.632;2022-09-20T07:11:05;98132.78;;;12.80;100.00
21359;BME280;13506;50.852;20.632;2022-09-20T07:13:35;98134.53;;;12.92;100.00
21359;BME280;13506;50.852;20.632;2022-09-20T07:16:05;98124.28;;;13.02;100.00
21359;BME280;13506;50.852;20.632;2022-09-20T07:18:34;98132.41;;;13.10;100.00
21359;BME280;13506;50.852;20.632;2022-09-20T07:21:01;98138.50;;;13.22;100.00
21359;BME280;13506;50.852;20.632;2022-09-20T07:23:31;98139.53;;;13.32;99.62
21359;BME280;13506;50.852;20.632;2022-09-20T07:25:59;98131.88;;;13.42;99.26
21359;BME280;13506;50.852;20.632;2022-09-20T07:28:29;98131.69;;;13.32;97.82
21359;BME280;13506;50.852;20.632;2022-09-20T07:30:57;98138.38;;;13.36;97.06
21359;BME280;13506;50.852;20.632;2022-09-20T07:33:25;98141.91;;;13.35;97.16
21359;BME280;13506;50.852;20.632;2022-09-20T07:35:54;98144.31;;;13.38;97.04
21359;BME280;13506;50.852;20.632;2022-09-20T07:38:22;98138.66;;;13.44;95.96
21359;BME280;13506;50.852;20.632;2022-09-20T07:40:54;98141.31;;;13.56;94.60
21359;BME280;13506;50.852;20.632;2022-09-20T07:43:23;98140.63;;;13.65;93.97
21359;BME280;13506;50.852;20.632;2022-09-20T07:45:53;98148.88;;;13.83;93.35
21359;BME280;13506;50.852;20.632;2022-09-20T07:48:24;98151.16;;;13.99;92.65
21359;BME280;13506;50.852;20.632;2022-09-20T07:50:54;98157.16;;;14.12;92.13
21359;BME280;13506;50.852;20.632;2022-09-20T07:53:23;98165.13;;;14.22;91.76
21359;BME280;13506;50.852;20.632;2022-09-20T07:55:58;98158.59;;;14.28;92.14
21359;BME280;13506;50.852;20.632;2022-09-20T07:58:27;98168.09;;;14.29;91.01
21359;BME280;13506;50.852;20.632;2022-09-20T08:00:58;98166.47;;;14.28;90.85
21359;BME280;13506;50.852;20.632;2022-09-20T08:03:27;98170.97;;;14.25;90.56
21359;BME280;13506;50.852;20.632;2022-09-20T08:05:59;98172.31;;;14.31;90.08
21359;BME280;13506;50.852;20.632;2022-09-20T08:08:27;98169.88;;;14.17;90.02
21359;BME280;13506;50.852;20.632;2022-09-20T08:11:01;98170.66;;;14.53;88.99
21359;BME280;13506;50.852;20.632;2022-09-20T08:13:35;98173.16;;;14.77;88.18
21359;BME280;13506;50.852;20.632;2022-09-20T08:16:07;98165.75;;;15.04;87.95
21359;BME280;13506;50.852;20.632;2022-09-20T08:18:36;98168.28;;;15.38;86.47
21359;BME280;13506;50.852;20.632;2022-09-20T08:21:06;98167.25;;;15.73;85.21
21359;BME280;13506;50.852;20.632;2022-09-20T08:23:34;98167.13;;;15.96;83.84
21359;BME280;13506;50.852;20.632;2022-09-20T08:26:03;98160.81;;;15.98;83.55
21359;BME280;13506;50.852;20.632;2022-09-20T08:28:31;98165.28;;;15.86;80.74
21359;BME280;13506;50.852;20.632;2022-09-20T08:31:04;98161.38;;;16.02;81.70
21359;BME280;13506;50.852;20.632;2022-09-20T08:33:32;98179.94;;;15.89;79.68
21359;BME280;13506;50.852;20.632;2022-09-20T08:36:02;98165.94;;;15.67;79.28
21359;BME280;13506;50.852;20.632;2022-09-20T08:38:31;98169.97;;;15.39;80.26
21359;BME280;13506;50.852;20.632;2022-09-20T08:41:03;98178.56;;;15.30;82.75
21359;BME280;13506;50.852;20.632;2022-09-20T08:43:37;98174.56;;;15.15;82.67
21359;BME280;13506;50.852;20.632;2022-09-20T08:46:18;98169.09;;;15.06;83.39
21359;BME280;13506;50.852;20.632;2022-09-20T08:48:47;98176.47;;;15.13;84.19
21359;BME280;13506;50.852;20.632;2022-09-20T08:51:16;98174.31;;;15.06;84.50
21359;BME280;13506;50.852;20.632;2022-09-20T08:53:48;98173.72;;;15.14;83.51
21359;BME280;13506;50.852;20.632;2022-09-20T08:56:16;98179.28;;;15.32;82.38
21359;BME280;13506;50.852;20.632;2022-09-20T08:58:45;98184.88;;;15.71;82.54
21359;BME280;13506;50.852;20.632;2022-09-20T09:01:21;98163.75;;;16.05;80.43
21359;BME280;13506;50.852;20.632;2022-09-20T09:03:50;98171.63;;;16.26;78.23
21359;BME280;13506;50.852;20.632;2022-09-20T09:06:19;98169.91;;;16.15;76.67
21359;BME280;13506;50.852;20.632;2022-09-20T09:08:51;98176.28;;;16.43;76.84
21359;BME280;13506;50.852;20.632;2022-09-20T09:11:20;98177.16;;;16.54;75.42
21359;BME280;13506;50.852;20.632;2022-09-20T09:13:53;98173.72;;;16.84;75.41
21359;BME280;13506;50.852;20.632;2022-09-20T09:16:27;98168.22;;;16.97;75.37
21359;BME280;13506;50.852;20.632;2022-09-20T09:18:56;98168.72;;;17.31;75.52
21359;BME280;13506;50.852;20.632;2022-09-20T09:21:27;98156.84;;;17.46;72.68
21359;BME280;13506;50.852;20.632;2022-09-20T09:24:02;98162.78;;;17.39;71.85
21359;BME280;13506;50.852;20.632;2022-09-20T09:26:36;98156.41;;;17.61;71.22
21359;BME280;13506;50.852;20.632;2022-09-20T09:29:13;98167.78;;;17.71;71.00
21359;BME280;13506;50.852;20.632;2022-09-20T09:31:43;98152.28;;;17.87;71.80
21359;BME280;13506;50.852;20.632;2022-09-20T09:34:24;98170.72;;;17.97;71.59
21359;BME280;13506;50.852;20.632;2022-09-20T09:36:52;98173.88;;;18.10;71.06
21359;BME280;13506;50.852;20.632;2022-09-20T09:39:24;98168.19;;;18.15;70.76
21359;BME280;13506;50.852;20.632;2022-09-20T09:41:52;98157.00;;;17.94;69.42
21359;BME280;13506;50.852;20.632;2022-09-20T09:44:22;98162.94;;;18.05;68.98
21359;BME280;13506;50.852;20.632;2022-09-20T09:46:52;98158.94;;;18.01;69.12
21359;BME280;13506;50.852;20.632;2022-09-20T09:49:21;98161.25;;;18.24;69.06
21359;BME280;13506;50.852;20.632;2022-09-20T09:52:05;98168.06;;;18.54;69.26
21359;BME280;13506;50.852;20.632;2022-09-20T09:54:35;98166.06;;;18.76;67.86
21359;BME280;13506;50.852;20.632;2022-09-20T09:57:18;98157.81;;;18.61;66.99
21359;BME280;13506;50.852;20.632;2022-09-20T10:00:07;98163.41;;;18.48;65.58
21359;BME280;13506;50.852;20.632;2022-09-20T10:03:12;98161.03;;;18.45;65.35
21359;BME280;13506;50.852;20.632;2022-09-20T10:06:00;98162.28;;;18.88;65.48
21359;BME280;13506;50.852;20.632;2022-09-20T10:08:42;98155.72;;;19.20;62.92
21359;BME280;13506;50.852;20.632;2022-09-20T10:11:22;98162.75;;;19.29;61.49
21359;BME280;13506;50.852;20.632;2022-09-20T10:14:07;98167.34;;;19.27;61.54
21359;BME280;13506;50.852;20.632;2022-09-20T10:16:50;98158.88;;;19.05;61.52
21359;BME280;13506;50.852;20.632;2022-09-20T10:19:38;98164.59;;;18.16;64.69
21359;BME280;13506;50.852;20.632;2022-09-20T10:22:16;98176.66;;;18.19;65.10
21359;BME280;13506;50.852;20.632;2022-09-20T10:24:55;98176.25;;;17.94;65.55
21359;BME280;13506;50.852;20.632;2022-09-20T10:27:45;98179.69;;;17.75;66.66
21359;BME280;13506;50.852;20.632;2022-09-20T10:30:17;98182.16;;;17.47;67.17
21359;BME280;13506;50.852;20.632;2022-09-20T10:32:59;98183.53;;;17.32;67.85
21359;BME280;13506;50.852;20.632;2022-09-20T10:35:45;98190.28;;;17.25;68.46
21359;BME280;13506;50.852;20.632;2022-09-20T10:38:22;98190.69;;;17.20;68.62
21359;BME280;13506;50.852;20.632;2022-09-20T10:41:12;98194.56;;;17.16;69.34
21359;BME280;13506;50.852;20.632;2022-09-20T10:44:09;98186.75;;;16.95;70.04
21359;BME280;13506;50.852;20.632;2022-09-20T10:46:52;98182.31;;;16.86;70.02
21359;BME280;13506;50.852;20.632;2022-09-20T10:49:33;98185.25;;;16.72;70.88
21359;BME280;13506;50.852;20.632;2022-09-20T10:52:29;98183.41;;;16.83;72.32
21359;BME280;13506;50.852;20.632;2022-09-20T10:55:17;98184.66;;;16.58;73.27
21359;BME280;13506;50.852;20.632;2022-09-20T10:58:19;98179.69;;;16.65;71.42
21359;BME280;13506;50.852;20.632;2022-09-20T11:01:02;98179.41;;;16.58;70.63
21359;BME280;13506;50.852;20.632;2022-09-20T11:04:01;98188.81;;;16.40;70.75
21359;BME280;13506;50.852;20.632;2022-09-20T11:06:42;98185.28;;;16.20;71.57
21359;BME280;13506;50.852;20.632;2022-09-20T11:09:18;98192.69;;;16.15;72.11
21359;BME280;13506;50.852;20.632;2022-09-20T11:11:50;98186.38;;;16.17;73.07
21359;BME280;13506;50.852;20.632;2022-09-20T11:14:22;98182.97;;;16.26;72.14
21359;BME280;13506;50.852;20.632;2022-09-20T11:17:01;98193.78;;;16.12;71.63
21359;BME280;13506;50.852;20.632;2022-09-20T11:19:40;98205.25;;;16.11;71.58
21359;BME280;13506;50.852;20.632;2022-09-20T11:22:17;98192.56;;;16.37;71.52
21359;BME280;13506;50.852;20.632;2022-09-20T11:24:52;98186.56;;;16.56;70.68
21359;BME280;13506;50.852;20.632;2022-09-20T11:27:27;98190.19;;;16.65;70.28
21359;BME280;13506;50.852;20.632;2022-09-20T11:30:02;98196.78;;;16.80;70.67
21359;BME280;13506;50.852;20.632;2022-09-20T11:32:36;98195.75;;;16.93;70.47
21359;BME280;13506;50.852;20.632;2022-09-20T11:35:24;98189.72;;;17.12;70.41
21359;BME280;13506;50.852;20.632;2022-09-20T11:38:03;98189.34;;;17.26;70.02
21359;BME280;13506;50.852;20.632;2022-09-20T11:40:40;98199.72;;;17.37;69.26
21359;BME280;13506;50.852;20.632;2022-09-20T11:43:13;98183.16;;;17.56;68.48
21359;BME280;13506;50.852;20.632;2022-09-20T11:45:43;98193.66;;;17.76;69.10
21359;BME280;13506;50.852;20.632;2022-09-20T11:48:20;98181.66;;;18.12;68.22
21359;BME280;13506;50.852;20.632;2022-09-20T11:51:39;98191.56;;;18.38;67.62
21359;BME280;13506;50.852;20.632;2022-09-20T11:54:37;98188.88;;;18.67;64.31
21359;BME280;13506;50.852;20.632;2022-09-20T11:57:13;98185.47;;;18.75;63.49
21359;BME280;13506;50.852;20.632;2022-09-20T11:59:49;98185.94;;;18.80;64.27
21359;BME280;13506;50.852;20.632;2022-09-20T12:02:23;98193.38;;;18.75;62.90
21359;BME280;13506;50.852;20.632;2022-09-20T12:04:56;98193.84;;;18.60;62.82
21359;BME280;13506;50.852;20.632;2022-09-20T12:07:27;98192.72;;;18.16;65.28
21359;BME280;13506;50.852;20.632;2022-09-20T12:10:01;98195.22;;;18.17;66.49
21359;BME280;13506;50.852;20.632;2022-09-20T12:12:38;98202.69;;;17.93;67.49
21359;BME280;13506;50.852;20.632;2022-09-20T12:15:23;98191.91;;;17.96;66.96
21359;BME280;13506;50.852;20.632;2022-09-20T12:21:08;98197.44;;;17.63;68.01
21359;BME280;13506;50.852;20.632;2022-09-20T12:24:17;98197.25;;;17.45;68.61
21359;BME280;13506;50.852;20.632;2022-09-20T12:26:47;98191.69;;;17.19;69.06
21359;BME280;13506;50.852;20.632;2022-09-20T12:29:53;98200.97;;;17.33;69.18
21359;BME280;13506;50.852;20.632;2022-09-20T12:32:47;98186.16;;;17.32;69.08
21359;BME280;13506;50.852;20.632;2022-09-20T12:35:57;98184.81;;;17.57;69.04
21359;BME280;13506;50.852;20.632;2022-09-20T12:38:33;98181.25;;;17.87;68.23
21359;BME280;13506;50.852;20.632;2022-09-20T12:41:08;98175.53;;;18.21;66.74
21359;BME280;13506;50.852;20.632;2022-09-20T12:43:57;98178.34;;;18.57;65.66
21359;BME280;13506;50.852;20.632;2022-09-20T12:46:51;98181.16;;;18.93;64.47
21359;BME280;13506;50.852;20.632;2022-09-20T12:49:30;98174.25;;;19.10;62.68
21359;BME280;13506;50.852;20.632;2022-09-20T12:52:36;98172.09;;;19.23;62.95
21359;BME280;13506;50.852;20.632;2022-09-20T12:55:39;98170.31;;;19.42;63.11
21359;BME280;13506;50.852;20.632;2022-09-20T12:58:30;98163.97;;;19.35;61.86
21359;BME280;13506;50.852;20.632;2022-09-20T13:01:30;98170.59;;;19.21;62.07
21359;BME280;13506;50.852;20.632;2022-09-20T13:07:45;98177.94;;;18.99;62.51
21359;BME280;13506;50.852;20.632;2022-09-20T13:10:27;98166.88;;;19.14;61.61
21359;BME280;13506;50.852;20.632;2022-09-20T13:13:27;98180.44;;;19.01;61.47
21359;BME280;13506;50.852;20.632;2022-09-20T13:15:56;98178.53;;;18.83;62.18
21359;BME280;13506;50.852;20.632;2022-09-20T13:18:26;98183.44;;;18.78;62.66
21359;BME280;13506;50.852;20.632;2022-09-20T13:20:56;98178.47;;;18.56;63.04
21359;BME280;13506;50.852;20.632;2022-09-20T13:23:30;98180.44;;;18.54;64.25
21359;BME280;13506;50.852;20.632;2022-09-20T13:26:01;98180.91;;;18.86;64.36
21359;BME280;13506;50.852;20.632;2022-09-20T13:28:37;98183.13;;;19.09;62.02
21359;BME280;13506;50.852;20.632;2022-09-20T13:31:26;98171.22;;;19.32;61.09
21359;BME280;13506;50.852;20.632;2022-09-20T13:33:54;98167.25;;;19.19;61.29
21359;BME280;13506;50.852;20.632;2022-09-20T13:36:26;98180.25;;;19.02;61.52
21359;BME280;13506;50.852;20.632;2022-09-20T13:38:56;98171.97;;;18.97;61.35
21359;BME280;13506;50.852;20.632;2022-09-20T13:41:27;98177.16;;;18.79;61.74
21359;BME280;13506;50.852;20.632;2022-09-20T13:43:58;98184.31;;;18.59;61.94
21359;BME280;13506;50.852;20.632;2022-09-20T13:46:30;98183.56;;;18.20;62.90
21359;BME280;13506;50.852;20.632;2022-09-20T13:49:12;98179.56;;;17.57;65.58
21359;BME280;13506;50.852;20.632;2022-09-20T13:51:41;98178.84;;;17.65;65.69
21359;BME280;13506;50.852;20.632;2022-09-20T13:54:25;98191.31;;;17.63;65.98
21359;BME280;13506;50.852;20.632;2022-09-20T13:56:54;98185.50;;;17.69;64.28
21359;BME280;13506;50.852;20.632;2022-09-20T13:59:23;98175.59;;;17.82;63.05
21359;BME280;13506;50.852;20.632;2022-09-20T14:01:54;98185.81;;;17.95;63.39
21359;BME280;13506;50.852;20.632;2022-09-20T14:04:23;98185.25;;;18.11;62.65
21359;BME280;13506;50.852;20.632;2022-09-20T14:06:53;98196.97;;;18.26;61.76
21359;BME280;13506;50.852;20.632;2022-09-20T14:09:27;98194.78;;;18.31;62.92
21359;BME280;13506;50.852;20.632;2022-09-20T14:11:57;98187.22;;;18.56;63.22
21359;BME280;13506;50.852;20.632;2022-09-20T14:14:25;98192.03;;;18.80;62.88
21359;BME280;13506;50.852;20.632;2022-09-20T14:16:55;98209.19;;;18.75;62.97
21359;BME280;13506;50.852;20.632;2022-09-20T14:19:28;98198.00;;;18.06;65.18
21359;BME280;13506;50.852;20.632;2022-09-20T14:21:58;98214.59;;;17.67;64.22
21359;BME280;13506;50.852;20.632;2022-09-20T14:24:32;98226.41;;;17.23;66.32
21359;BME280;13506;50.852;20.632;2022-09-20T14:27:13;98226.75;;;16.78;67.69